Time;durP1;ratioP1;P1;durP2;ratioP2;P2;SDS_P1;SDS_P2;PMS_P1;PMS_P2;Temp;Humidity;BMP_temperature;BMP_pressure;BME280_temperature;BME280_humidity;BME280_pressure;Samples;Min_cycle;Max_cycle;Signal;HPM_P1;HPM_P2
2023/10/16 00:02:11;;;;;;;;;;;;;;;4.89;100.00;102280.53;5116701;28;19912;-50
2023/10/16 00:04:37;;;;;;;;;;;;;;;4.88;100.00;102277.09;5116484;28;19993;-51
2023/10/16 00:07:03;;;;;;;;;;;;;;;4.91;100.00;102279.00;5115828;28;19916;-50
2023/10/16 00:09:29;;;;;;;;;;;;;;;4.91;100.00;102269.66;5116104;28;19918;-50
2023/10/16 00:11:54;;;;;;;;;;;;;;;4.91;100.00;102274.78;5116437;28;19956;-51
2023/10/16 00:14:23;;;;;;;;;;;;;;;4.93;100.00;102277.44;5115499;28;20271;-51
2023/10/16 00:16:50;;;;;;;;;;;;;;;4.90;100.00;102275.53;5116475;28;19935;-51
2023/10/16 00:19:15;;;;;;;;;;;;;;;4.89;100.00;102273.78;5115939;28;19921;-50
2023/10/16 00:21:44;;;;;;;;;;;;;;;4.90;100.00;102278.09;5115213;28;19918;-50
2023/10/16 00:24:12;;;;;;;;;;;;;;;4.93;100.00;102274.88;5116165;28;20008;-51
2023/10/16 00:26:42;;;;;;;;;;;;;;;4.95;100.00;102270.78;5116226;28;19951;-51
2023/10/16 00:29:22;;;;;;;;;;;;;;;4.95;100.00;102276.78;5115302;28;19998;-51
2023/10/16 00:31:51;;;;;;;;;;;;;;;4.95;100.00;102268.22;5116081;28;19919;-50
2023/10/16 00:34:19;;;;;;;;;;;;;;;4.94;100.00;102264.81;5115698;28;19943;-50
2023/10/16 00:36:45;;;;;;;;;;;;;;;4.94;100.00;102272.47;5115033;28;19918;-50
2023/10/16 00:39:13;;;;;;;;;;;;;;;4.93;100.00;102267.22;5114727;28;19995;-48
2023/10/16 00:41:42;;;;;;;;;;;;;;;4.93;100.00;102268.13;5114711;28;19912;-51
2023/10/16 00:44:07;;;;;;;;;;;;;;;4.95;100.00;102273.34;5115745;28;19916;-50
2023/10/16 00:46:36;;;;;;;;;;;;;;;4.97;100.00;102268.34;5115352;28;20332;-50
2023/10/16 00:49:02;;;;;;;;;;;;;;;4.97;100.00;102273.44;5114733;28;19911;-50
2023/10/16 00:51:28;;;;;;;;;;;;;;;4.98;100.00;102272.69;5115538;28;19980;-49
2023/10/16 00:53:53;;;;;;;;;;;;;;;4.99;100.00;102277.03;5115537;28;20325;-51
2023/10/16 00:56:19;;;;;;;;;;;;;;;5.01;100.00;102273.81;5114184;28;20286;-51
2023/10/16 00:58:48;;;;;;;;;;;;;;;5.03;100.00;102269.69;5115165;28;20419;-50
2023/10/16 01:01:13;;;;;;;;;;;;;;;5.05;100.00;102268.16;5115142;28;20359;-50
2023/10/16 01:03:42;;;;;;;;;;;;;;;5.06;100.00;102261.38;5114537;28;19912;-49
2023/10/16 01:06:17;;;;;;;;;;;;;;;5.05;100.00;102269.84;5115442;28;19918;-50
2023/10/16 01:08:46;;;;;;;;;;;;;;;5.02;100.00;102261.91;5115399;28;19911;-51
2023/10/16 01:11:14;;;;;;;;;;;;;;;5.00;100.00;102263.50;5114136;28;19911;-50
2023/10/16 01:13:39;;;;;;;;;;;;;;;4.93;100.00;102267.22;5115181;28;19911;-50
2023/10/16 01:16:07;;;;;;;;;;;;;;;4.84;100.00;102259.78;5115087;28;20277;-50
2023/10/16 01:18:32;;;;;;;;;;;;;;;4.80;100.00;102255.19;5114130;28;19912;-49
2023/10/16 01:20:57;;;;;;;;;;;;;;;4.79;100.00;102248.31;5115022;28;19907;-50
2023/10/16 01:23:23;;;;;;;;;;;;;;;4.78;100.00;102255.06;5114779;28;19933;-50
2023/10/16 01:25:49;;;;;;;;;;;;;;;4.77;100.00;102253.28;5114213;28;19958;-51
2023/10/16 01:28:17;;;;;;;;;;;;;;;4.75;100.00;102253.94;5114629;28;19991;-50
2023/10/16 01:30:45;;;;;;;;;;;;;;;4.71;100.00;102247.75;5113892;28;19918;-51
2023/10/16 01:33:10;;;;;;;;;;;;;;;4.64;100.00;102242.03;5114683;28;19916;-47
2023/10/16 01:35:38;;;;;;;;;;;;;;;4.57;100.00;102245.78;5114715;28;19911;-49
2023/10/16 01:38:19;;;;;;;;;;;;;;;4.50;100.00;102249.53;5114136;28;19912;-50
2023/10/16 01:41:02;;;;;;;;;;;;;;;4.43;100.00;102247.28;5114795;28;19922;-50
2023/10/16 01:43:28;;;;;;;;;;;;;;;4.40;100.00;102252.13;5114400;28;19912;-50
2023/10/16 01:45:55;;;;;;;;;;;;;;;4.37;100.00;102249.34;5113892;28;19911;-49
2023/10/16 01:48:21;;;;;;;;;;;;;;;4.35;100.00;102244.16;5114345;28;19918;-51
2023/10/16 01:50:52;;;;;;;;;;;;;;;4.33;100.00;102243.13;5114195;28;19912;-50
2023/10/16 01:53:20;;;;;;;;;;;;;;;4.33;100.00;102234.59;5113247;28;20357;-50
2023/10/16 01:55:54;;;;;;;;;;;;;;;4.33;100.00;102244.78;5114333;28;19916;-49
2023/10/16 01:58:21;;;;;;;;;;;;;;;4.35;100.00;102243.22;5113843;28;19915;-50
2023/10/16 02:00:46;;;;;;;;;;;;;;;4.36;100.00;102234.81;5113330;28;20363;-48
2023/10/16 02:03:12;;;;;;;;;;;;;;;4.38;100.00;102238.38;5113756;28;19911;-51
2023/10/16 02:05:41;;;;;;;;;;;;;;;4.39;100.00;102233.38;5114141;28;19919;-50
2023/10/16 02:08:07;;;;;;;;;;;;;;;4.39;100.00;102233.38;5113184;28;19914;-50
2023/10/16 02:10:32;;;;;;;;;;;;;;;4.38;100.00;102228.19;5113958;28;19916;-51
2023/10/16 02:12:58;;;;;;;;;;;;;;;4.34;100.00;102226.13;5113164;28;20363;-50
2023/10/16 02:15:23;;;;;;;;;;;;;;;4.31;100.00;102225.91;5113915;28;20009;-50
2023/10/16 02:17:49;;;;;;;;;;;;;;;4.27;100.00;102222.22;5114111;28;20374;-50
2023/10/16 02:20:16;;;;;;;;;;;;;;;4.24;100.00;102230.53;5112806;28;19915;-51
2023/10/16 02:22:41;;;;;;;;;;;;;;;4.23;100.00;102222.75;5113815;28;20004;-50
2023/10/16 02:25:11;;;;;;;;;;;;;;;4.23;100.00;102218.53;5114146;28;19935;-51
2023/10/16 02:27:36;;;;;;;;;;;;;;;4.22;100.00;102216.78;5113197;28;19911;-49
2023/10/16 02:30:38;;;;;;;;;;;;;;;4.22;100.00;102220.97;5113694;28;19957;-49
2023/10/16 02:33:12;;;;;;;;;;;;;;;4.24;100.00;102220.31;5110563;28;19918;-50
2023/10/16 02:35:37;;;;;;;;;;;;;;;4.27;100.00;102220.56;5113156;28;19934;-51
2023/10/16 02:38:03;;;;;;;;;;;;;;;4.29;100.00;102216.47;5113821;28;20283;-51
2023/10/16 02:40:32;;;;;;;;;;;;;;;4.33;100.00;102215.03;5113629;28;19937;-51
2023/10/16 02:43:01;;;;;;;;;;;;;;;4.36;100.00;102210.16;5112861;28;19947;-50
2023/10/16 02:45:26;;;;;;;;;;;;;;;4.40;100.00;102211.28;5113452;28;19912;-50
2023/10/16 02:47:52;;;;;;;;;;;;;;;4.42;100.00;102214.88;5113800;28;19986;-50
2023/10/16 02:50:18;;;;;;;;;;;;;;;4.45;100.00;102210.91;5112697;28;20002;-51
2023/10/16 02:52:44;;;;;;;;;;;;;;;4.49;100.00;102212.00;5113692;28;19916;-50
2023/10/16 02:55:11;;;;;;;;;;;;;;;4.51;100.00;102205.34;5112765;28;19908;-51
2023/10/16 02:57:36;;;;;;;;;;;;;;;4.54;100.00;102210.69;5113379;28;20378;-51
2023/10/16 03:00:06;;;;;;;;;;;;;;;4.55;100.00;102211.59;5113308;28;19916;-50
2023/10/16 03:02:33;;;;;;;;;;;;;;;4.58;100.00;102211.81;5112546;28;20355;-49
2023/10/16 03:05:10;;;;;;;;;;;;;;;4.61;100.00;102207.84;5117906;28;19912;-51
2023/10/16 03:07:36;;;;;;;;;;;;;;;4.63;100.00;102209.63;5117784;28;19960;-51
2023/10/16 03:10:02;;;;;;;;;;;;;;;4.65;100.00;102208.06;5116916;28;20404;-50
2023/10/16 03:12:27;;;;;;;;;;;;;;;4.63;100.00;102209.63;5117214;28;20276;-50
2023/10/16 03:15:00;;;;;;;;;;;;;;;4.61;100.00;102215.50;5117383;28;20359;-50
2023/10/16 03:19:57;;;;;;;;;;;;;;;4.53;100.00;102213.13;5117476;28;19997;-50
2023/10/16 03:22:23;;;;;;;;;;;;;;;4.49;100.00;102219.66;5116850;28;20278;-50
2023/10/16 03:24:48;;;;;;;;;;;;;;;4.45;100.00;102215.09;5116392;28;19912;-50
2023/10/16 03:27:27;;;;;;;;;;;;;;;4.38;100.00;102208.63;5116785;28;19912;-51
2023/10/16 03:29:54;;;;;;;;;;;;;;;4.31;100.00;102214.03;5117477;28;19961;-50
2023/10/16 03:32:19;;;;;;;;;;;;;;;4.25;100.00;102209.34;5116340;28;19912;-50
2023/10/16 03:34:44;;;;;;;;;;;;;;;4.19;100.00;102203.75;5117186;28;20302;-50
2023/10/16 03:37:10;;;;;;;;;;;;;;;4.12;100.00;102209.19;5117116;28;19912;-50
2023/10/16 03:39:36;;;;;;;;;;;;;;;4.07;100.00;102203.72;5116043;28;19998;-51
2023/10/16 03:42:01;;;;;;;;;;;;;;;4.02;100.00;102209.25;5116735;28;19968;-51
2023/10/16 03:44:26;;;;;;;;;;;;;;;3.95;100.00;102206.19;5115683;28;19912;-50
2023/10/16 03:46:52;;;;;;;;;;;;;;;3.89;100.00;102205.72;5116895;28;20369;-50
2023/10/16 03:49:18;;;;;;;;;;;;;;;3.88;100.00;102203.94;5116537;28;19911;-50
2023/10/16 03:51:45;;;;;;;;;;;;;;;3.85;100.00;102198.59;5116073;28;20375;-51
2023/10/16 03:54:12;;;;;;;;;;;;;;;3.85;100.00;102197.69;5116686;28;19927;-48
2023/10/16 03:56:37;;;;;;;;;;;;;;;3.85;100.00;102208.81;5116620;28;19911;-51
2023/10/16 03:59:03;;;;;;;;;;;;;;;3.85;100.00;102198.59;5115729;28;20036;-50
2023/10/16 04:01:28;;;;;;;;;;;;;;;3.83;100.00;102205.22;5116356;28;19911;-51
2023/10/16 04:03:56;;;;;;;;;;;;;;;3.79;100.00;102205.75;5116672;28;19955;-50
2023/10/16 04:06:23;;;;;;;;;;;;;;;3.75;100.00;102196.09;5115394;28;20416;-51
2023/10/16 04:08:51;;;;;;;;;;;;;;;3.72;100.00;102199.28;5116383;28;20006;-50
2023/10/16 04:11:17;;;;;;;;;;;;;;;3.69;100.00;102206.69;5116020;28;20359;-50
2023/10/16 04:13:48;;;;;;;;;;;;;;;3.67;100.00;102207.31;5115433;28;19994;-50
2023/10/16 04:21:40;;;;;;;;;;;;;;;3.63;100.00;102194.34;5115419;28;19915;-49
2023/10/16 04:24:19;;;;;;;;;;;;;;;3.66;100.00;102191.16;5116263;28;19915;-50
2023/10/16 04:26:56;;;;;;;;;;;;;;;3.71;100.00;102191.53;5115554;28;19911;-51
2023/10/16 04:29:34;;;;;;;;;;;;;;;3.75;100.00;102191.88;5115844;28;19912;-48
2023/10/16 04:50:37;;;;;;;;;;;;;;;4.03;100.00;102172.72;5115572;28;20006;-50
2023/10/16 04:58:47;;;;;;;;;;;;;;;3.97;100.00;102162.06;5115354;28;20002;-50
2023/10/16 05:09:53;;;;;;;;;;;;;;;3.92;100.00;102159.16;5114578;28;19912;-49
2023/10/16 05:17:21;;;;;;;;;;;;;;;4.08;100.00;102157.03;5114362;28;19918;-50
2023/10/16 05:19:53;;;;;;;;;;;;;;;4.16;100.00;102161.81;5115071;28;19911;-50
2023/10/16 06:14:12;;;;;;;;;;;;;;;4.32;100.00;102166.44;5113210;28;19956;-51
2023/10/16 06:16:40;;;;;;;;;;;;;;;4.28;100.00;102166.19;5113972;28;20044;-50
2023/10/16 06:19:14;;;;;;;;;;;;;;;4.24;100.00;102169.28;5113283;28;19916;-50
2023/10/16 06:21:41;;;;;;;;;;;;;;;4.20;100.00;102162.16;5113961;28;19964;-49
2023/10/16 06:24:17;;;;;;;;;;;;;;;4.14;100.00;102159.16;5113670;28;20316;-51
2023/10/16 06:26:46;;;;;;;;;;;;;;;4.12;100.00;102165.81;5113332;28;20279;-49
2023/10/16 06:29:11;;;;;;;;;;;;;;;4.11;100.00;102164.03;5113423;28;20405;-51
2023/10/16 06:31:49;;;;;;;;;;;;;;;4.10;100.00;102163.13;5113782;28;19911;-49
2023/10/16 06:34:15;;;;;;;;;;;;;;;4.09;100.00;102169.00;5112565;28;19931;-50
2023/10/16 06:36:41;;;;;;;;;;;;;;;4.09;100.00;102165.56;5113583;28;20329;-49
2023/10/16 06:39:19;;;;;;;;;;;;;;;4.09;100.00;102169.00;5113492;28;20374;-50
2023/10/16 06:41:45;;;;;;;;;;;;;;;4.10;100.00;102170.75;5113129;28;19912;-49
2023/10/16 06:44:15;;;;;;;;;;;;;;;4.11;100.00;102169.13;5113383;28;19912;-46
2023/10/16 06:46:41;;;;;;;;;;;;;;;4.12;100.00;102168.34;5113649;28;19912;-50
2023/10/16 06:49:09;;;;;;;;;;;;;;;4.13;100.00;102170.13;5112806;28;20412;-50
2023/10/16 06:51:34;;;;;;;;;;;;;;;4.16;100.00;102169.47;5113144;28;19956;-50
2023/10/16 06:54:01;;;;;;;;;;;;;;;4.18;100.00;102168.81;5113738;28;19915;-50
2023/10/16 06:56:34;;;;;;;;;;;;;;;4.24;100.00;102169.28;5112647;28;19958;-50
2023/10/16 06:58:59;;;;;;;;;;;;;;;4.27;100.00;102163.53;5113298;28;19923;-50
2023/10/16 07:01:25;;;;;;;;;;;;;;;4.32;100.00;102166.44;5112452;28;19911;-48
2023/10/16 07:03:51;;;;;;;;;;;;;;;4.36;100.00;102163.34;5113182;28;19911;-51
2023/10/16 07:06:16;;;;;;;;;;;;;;;4.42;100.00;102168.91;5112924;28;19911;-50
2023/10/16 07:08:41;;;;;;;;;;;;;;;4.44;100.00;102163.16;5112614;28;19908;-51
2023/10/16 07:11:11;;;;;;;;;;;;;;;4.50;100.00;102166.94;5113303;28;19919;-51
2023/10/16 07:13:38;;;;;;;;;;;;;;;4.55;100.00;102175.84;5113329;28;19916;-51
2023/10/16 07:16:05;;;;;;;;;;;;;;;4.59;100.00;102165.97;5112609;28;19931;-50
2023/10/16 07:18:35;;;;;;;;;;;;;;;4.65;100.00;102160.44;5113004;28;19916;-50
2023/10/16 07:23:29;;;;;;;;;;;;;;;4.77;100.00;102174.09;5112166;28;20323;-50
2023/10/16 07:25:54;;;;;;;;;;;;;;;4.84;100.00;102166.91;5113165;28;19933;-50
2023/10/16 07:28:20;;;;;;;;;;;;;;;4.90;100.00;102170.78;5112860;28;20342;-51
2023/10/16 07:30:45;;;;;;;;;;;;;;;4.97;100.00;102167.06;5112445;28;20378;-51
2023/10/16 07:33:16;;;;;;;;;;;;;;;5.02;100.00;102167.38;5112728;28;19911;-49
2023/10/16 07:35:45;;;;;;;;;;;;;;;5.06;100.00;102167.72;5113247;28;19957;-51
2023/10/16 07:38:11;;;;;;;;;;;;;;;5.11;100.00;102173.16;5112072;28;19912;-46
2023/10/16 07:40:37;;;;;;;;;;;;;;;5.19;100.00;102177.19;5113442;28;19921;-49
2023/10/16 07:43:08;;;;;;;;;;;;;;;5.27;100.00;102173.50;5112935;28;19912;-50
2023/10/16 07:45:33;;;;;;;;;;;;;;;5.38;100.00;102170.81;5111840;28;19970;-51
2023/10/16 07:48:07;;;;;;;;;;;;;;;5.47;100.00;102168.06;5113186;28;20316;-51
2023/10/16 07:50:33;;;;;;;;;;;;;;;5.59;100.00;102163.78;5115254;28;19911;-51
2023/10/16 07:53:01;;;;;;;;;;;;;;;5.68;100.00;102158.44;5116783;28;19918;-49
2023/10/16 07:55:38;;;;;;;;;;;;;;;5.76;100.00;102147.97;5116322;28;19930;-50
2023/10/16 07:58:11;;;;;;;;;;;;;;;5.86;100.00;102167.44;5115479;28;19955;-49
2023/10/16 08:00:42;;;;;;;;;;;;;;;5.94;100.00;102170.53;5116766;28;19912;-50
2023/10/16 08:03:13;;;;;;;;;;;;;;;6.01;100.00;102167.63;5116696;28;19911;-51
2023/10/16 08:05:38;;;;;;;;;;;;;;;6.12;100.00;102163.28;5115788;28;19912;-49
2023/10/16 08:08:11;;;;;;;;;;;;;;;6.26;100.00;102166.75;5116347;28;19952;-50
2023/10/16 08:10:43;;;;;;;;;;;;;;;6.41;100.00;102160.09;5116270;28;19912;-50
2023/10/16 08:13:12;;;;;;;;;;;;;;;6.55;100.00;102161.03;5115691;28;19919;-51
2023/10/16 08:15:49;;;;;;;;;;;;;;;6.72;100.00;102161.28;5116325;28;19933;-50
2023/10/16 08:18:14;;;;;;;;;;;;;;;6.92;100.00;102168.63;5115898;28;20324;-50
2023/10/16 08:23:23;;;;;;;;;;;;;;;7.24;100.00;102163.81;5115960;28;19934;-50
2023/10/16 08:25:49;;;;;;;;;;;;;;;7.33;100.00;102168.63;5115308;28;20380;-50
2023/10/16 08:28:20;;;;;;;;;;;;;;;7.46;100.00;102171.19;5116050;28;19994;-50
2023/10/16 08:33:16;;;;;;;;;;;;;;;7.60;100.00;102173.75;5114945;28;19959;-50
2023/10/16 08:35:42;;;;;;;;;;;;;;;7.68;100.00;102175.13;5115805;28;20309;-50
2023/10/16 08:38:11;;;;;;;;;;;;;;;7.76;100.00;102173.94;5115939;28;20347;-50
2023/10/16 08:40:39;;;;;;;;;;;;;;;7.88;100.00;102172.09;5115176;28;19919;-50
2023/10/16 08:43:07;;;;;;;;;;;;;;;8.04;100.00;102166.25;5115569;28;19918;-50
2023/10/16 08:45:33;;;;;;;;;;;;;;;8.27;100.00;102168.44;5115434;28;19942;-50
2023/10/16 08:47:58;;;;;;;;;;;;;;;8.50;100.00;102160.44;5114813;28;19943;-50
2023/10/16 08:50:40;;;;;;;;;;;;;;;8.75;100.00;102163.56;5115114;28;20020;-50
2023/10/16 08:53:05;;;;;;;;;;;;;;;8.94;100.00;102160.41;5115731;28;19911;-51
2023/10/16 08:55:31;;;;;;;;;;;;;;;9.07;100.00;102160.28;5114296;28;20414;-50
2023/10/16 08:57:57;;;;;;;;;;;;;;;9.13;100.00;102155.50;5115230;28;19915;-51
2023/10/16 09:00:23;;;;;;;;;;;;;;;9.31;100.00;102163.34;5114026;28;19912;-50
2023/10/16 09:02:51;;;;;;;;;;;;;;;9.58;100.00;102159.63;5114244;28;19955;-50
2023/10/16 09:05:16;;;;;;;;;;;;;;;9.80;100.00;102162.59;5114888;28;19923;-51
2023/10/16 09:07:41;;;;;;;;;;;;;;;10.08;100.00;102161.47;5115110;28;19907;-50
2023/10/16 09:10:15;;;;;;;;;;;;;;;10.41;100.00;102164.06;5114390;28;20347;-51
2023/10/16 09:12:45;;;;;;;;;;;;;;;10.73;100.00;102166.50;5115028;28;19930;-50
2023/10/16 09:15:12;;;;;;;;;;;;;;;10.85;100.00;102172.28;5114007;28;19965;-50
2023/10/16 09:17:38;;;;;;;;;;;;;;;11.07;100.00;102171.66;5115109;28;19915;-51
2023/10/16 09:20:13;;;;;;;;;;;;;;;11.42;100.00;102176.75;5115029;28;19957;-51
2023/10/16 09:22:40;;;;;;;;;;;;;;;11.57;100.00;102166.25;5113523;28;19912;-50
2023/10/16 09:25:06;;;;;;;;;;;;;;;11.66;100.00;102169.28;5114824;28;20378;-51
2023/10/16 09:27:31;;;;;;;;;;;;;;;11.88;100.00;102172.81;5114477;28;19919;-50
2023/10/16 09:29:58;;;;;;;;;;;;;;;12.32;100.00;102176.56;5113930;28;19916;-50
2023/10/16 09:32:25;;;;;;;;;;;;;;;12.85;100.00;102174.50;5114618;28;19990;-51
2023/10/16 09:34:54;;;;;;;;;;;;;;;13.25;100.00;102170.06;5114654;28;20351;-50
2023/10/16 09:37:24;;;;;;;;;;;;;;;13.61;100.00;102172.34;5113887;28;19912;-49
2023/10/16 09:39:52;;;;;;;;;;;;;;;13.89;100.00;102165.59;5114810;28;19990;-51
2023/10/16 09:42:24;;;;;;;;;;;;;;;14.25;100.00;102175.53;5114168;28;19998;-51
2023/10/16 09:47:51;;;;;;;;;;;;;;;15.06;100.00;102180.06;5079943;28;19965;-51
2023/10/16 09:50:16;;;;;;;;;;;;;;;15.33;100.00;102176.59;5113269;28;20313;-50
2023/10/16 09:52:45;;;;;;;;;;;;;;;15.42;100.00;102174.28;5114190;28;19937;-49
2023/10/16 09:55:10;;;;;;;;;;;;;;;15.23;95.64;102171.94;5114132;28;20003;-49
2023/10/16 09:57:38;;;;;;;;;;;;;;;14.99;100.00;102170.31;5113552;28;19998;-50
2023/10/16 10:00:23;;;;;;;;;;;;;;;14.95;100.00;102171.03;5113951;28;20405;-50
2023/10/16 10:02:53;;;;;;;;;;;;;;;15.01;95.72;102168.66;5114165;28;19912;-49
2023/10/16 10:05:22;;;;;;;;;;;;;;;15.10;91.56;102171.53;5113041;28;20367;-50
2023/10/16 10:07:49;;;;;;;;;;;;;;;15.11;96.53;102172.44;5114382;28;19908;-50
2023/10/16 10:13:08;;;;;;;;;;;;;;;15.79;100.00;102172.78;5113111;28;19918;-49
2023/10/16 10:15:37;;;;;;;;;;;;;;;16.19;99.09;102174.78;5113589;28;20355;-51
2023/10/16 10:18:31;;;;;;;;;;;;;;;16.43;100.00;102169.38;5114166;28;19926;-51
2023/10/16 10:20:55;;;;;;;;;;;;;;;16.69;98.95;102172.63;5113891;28;19931;-51
2023/10/16 10:23:24;;;;;;;;;;;;;;;16.92;96.72;102167.16;5113534;28;19916;-51
2023/10/16 10:25:53;;;;;;;;;;;;;;;17.13;98.17;102169.41;5113186;28;19912;-50
2023/10/16 10:28:32;;;;;;;;;;;;;;;17.29;94.21;102165.44;5113667;28;19923;-50
2023/10/16 10:31:04;;;;;;;;;;;;;;;17.49;90.97;102167.63;5113865;28;19912;-50
2023/10/16 10:33:44;;;;;;;;;;;;;;;17.50;91.93;102165.03;5112738;28;19994;-50
2023/10/16 10:36:28;;;;;;;;;;;;;;;17.43;90.12;102169.22;5113502;28;20018;-51
2023/10/16 10:39:20;;;;;;;;;;;;;;;17.32;85.12;102169.84;5113860;28;19916;-50
2023/10/16 10:41:47;;;;;;;;;;;;;;;17.09;86.16;102163.25;5113860;28;19965;-50
2023/10/16 10:44:14;;;;;;;;;;;;;;;16.90;87.44;102158.38;5113360;28;19912;-50
2023/10/16 10:46:42;;;;;;;;;;;;;;;16.76;85.31;102164.16;5112969;28;19927;-49
2023/10/16 10:49:12;;;;;;;;;;;;;;;16.71;86.58;102165.75;5113392;28;20366;-50
2023/10/16 10:51:44;;;;;;;;;;;;;;;16.78;86.87;102162.47;5113613;28;19923;-50
2023/10/16 10:54:12;;;;;;;;;;;;;;;16.94;86.50;102157.69;5112746;28;19918;-51
2023/10/16 10:56:50;;;;;;;;;;;;;;;17.14;85.46;102159.88;5113477;28;19934;-50
2023/10/16 10:59:40;;;;;;;;;;;;;;;17.30;86.52;102156.78;5112936;28;19923;-50
2023/10/16 11:02:20;;;;;;;;;;;;;;;17.30;81.46;102150.69;5112696;28;20382;-50
2023/10/16 11:04:58;;;;;;;;;;;;;;;17.01;70.07;102141.34;5113416;28;20355;-51
2023/10/16 11:07:45;;;;;;;;;;;;;;;16.63;73.49;102143.88;5112296;28;19919;-50
2023/10/16 11:10:12;;;;;;;;;;;;;;;16.66;80.78;102140.47;5113395;28;19968;-47
2023/10/16 11:12:38;;;;;;;;;;;;;;;16.90;81.28;102141.09;5113767;28;19919;-50
2023/10/16 11:15:09;;;;;;;;;;;;;;;16.98;78.65;102138.69;5112706;28;19911;-51
2023/10/16 11:17:35;;;;;;;;;;;;;;;16.72;81.07;102146.69;5113142;28;19911;-50
2023/10/16 11:20:12;;;;;;;;;;;;;;;16.50;81.03;102140.06;5113227;28;19912;-51
2023/10/16 11:22:43;;;;;;;;;;;;;;;16.43;83.45;102139.00;5112675;28;19918;-50
2023/10/16 11:25:08;;;;;;;;;;;;;;;16.22;81.49;102135.88;5116143;28;19956;-50
2023/10/16 11:27:34;;;;;;;;;;;;;;;15.91;82.38;102135.03;5116939;28;19912;-50
2023/10/16 11:30:00;;;;;;;;;;;;;;;15.60;84.44;102131.50;5116658;28;20360;-50
2023/10/16 11:32:26;;;;;;;;;;;;;;;15.22;84.37;102128.63;5116889;28;19911;-50
2023/10/16 11:34:59;;;;;;;;;;;;;;;14.85;86.05;102122.25;5116907;28;19919;-48
2023/10/16 11:37:25;;;;;;;;;;;;;;;14.52;87.91;102123.75;5116122;28;19911;-50
2023/10/16 11:39:50;;;;;;;;;;;;;;;14.28;89.19;102118.59;5116900;28;20421;-50
2023/10/16 11:42:16;;;;;;;;;;;;;;;14.12;90.68;102118.06;5116612;28;19915;-50
2023/10/16 11:44:42;;;;;;;;;;;;;;;13.98;88.99;102108.91;5116131;28;20371;-50
2023/10/16 11:47:16;;;;;;;;;;;;;;;13.98;90.55;102109.81;5116897;28;19925;-50
2023/10/16 11:49:53;;;;;;;;;;;;;;;14.05;89.36;102103.13;5116301;28;19919;-49
2023/10/16 11:52:23;;;;;;;;;;;;;;;14.15;90.02;102107.81;5116687;28;19998;-51
2023/10/16 11:54:56;;;;;;;;;;;;;;;14.19;90.15;102100.13;5116905;28;19911;-50
2023/10/16 11:57:21;;;;;;;;;;;;;;;14.18;91.12;102095.75;5115526;28;19943;-50
2023/10/16 11:59:51;;;;;;;;;;;;;;;14.08;90.74;102102.34;5116225;28;19989;-50
2023/10/16 12:02:18;;;;;;;;;;;;;;;13.92;92.06;102095.75;5116327;28;20003;-50
2023/10/16 12:04:44;;;;;;;;;;;;;;;13.75;89.09;102100.31;5115479;28;19923;-51
2023/10/16 12:07:09;;;;;;;;;;;;;;;13.65;90.18;102093.91;5116403;28;19912;-51
2023/10/16 12:09:36;;;;;;;;;;;;;;;13.60;90.34;102095.47;5116048;28;19912;-50
2023/10/16 12:12:06;;;;;;;;;;;;;;;13.60;91.43;102085.09;5115582;28;19958;-51
2023/10/16 12:14:31;;;;;;;;;;;;;;;13.64;90.63;102085.25;5115965;28;19912;-49
2023/10/16 12:16:57;;;;;;;;;;;;;;;13.71;90.60;102078.59;5116494;28;19922;-51
2023/10/16 12:19:24;;;;;;;;;;;;;;;13.80;90.62;102084.13;5114988;28;20377;-51
2023/10/16 12:21:52;;;;;;;;;;;;;;;13.91;89.15;102081.03;5116341;28;19934;-51
2023/10/16 12:24:17;;;;;;;;;;;;;;;14.05;88.55;102079.81;5115821;28;19912;-51
2023/10/16 12:26:43;;;;;;;;;;;;;;;14.31;87.59;102074.63;5115815;28;19935;-51
2023/10/16 12:29:10;;;;;;;;;;;;;;;14.59;87.95;102072.94;5116071;28;19908;-48
2023/10/16 12:31:35;;;;;;;;;;;;;;;14.84;88.79;102064.28;5115923;28;20301;-48
2023/10/16 12:34:01;;;;;;;;;;;;;;;15.00;86.92;102068.22;5115112;28;19912;-47
2023/10/16 12:36:26;;;;;;;;;;;;;;;15.15;85.59;102060.91;5115405;28;19915;-50
2023/10/16 12:38:53;;;;;;;;;;;;;;;15.33;85.37;102066.63;5115172;28;20363;-51
2023/10/16 12:41:19;;;;;;;;;;;;;;;15.53;83.06;102062.00;5115527;28;19911;-51
2023/10/16 12:43:44;;;;;;;;;;;;;;;15.71;83.07;102057.31;5115608;28;19934;-50
2023/10/16 12:46:10;;;;;;;;;;;;;;;15.85;81.19;102051.66;5115169;28;20026;-51
2023/10/16 12:48:37;;;;;;;;;;;;;;;15.93;83.32;102052.72;5115902;28;19908;-50
2023/10/16 12:51:07;;;;;;;;;;;;;;;16.01;81.69;102051.22;5115753;28;19912;-49
2023/10/16 12:53:32;;;;;;;;;;;;;;;16.06;78.96;102052.22;5114620;28;19965;-51
2023/10/16 12:55:58;;;;;;;;;;;;;;;16.03;76.46;102049.53;5115442;28;19908;-50
2023/10/16 12:58:24;;;;;;;;;;;;;;;15.88;78.35;102054.31;5115109;28;19984;-50
2023/10/16 13:00:52;;;;;;;;;;;;;;;15.51;76.92;102045.50;5114632;28;19919;-49
2023/10/16 13:03:20;;;;;;;;;;;;;;;15.35;76.42;102045.06;5115174;28;19916;-51
2023/10/16 13:05:46;;;;;;;;;;;;;;;15.26;75.86;102052.53;5115553;28;19912;-50
2023/10/16 13:08:11;;;;;;;;;;;;;;;15.17;77.14;102055.78;5114215;28;20299;-49
2023/10/16 13:10:37;;;;;;;;;;;;;;;15.34;78.49;102053.66;5115455;28;20366;-48
2023/10/16 13:13:04;;;;;;;;;;;;;;;15.68;77.57;102046.81;5115462;28;20355;-51
2023/10/16 13:15:29;;;;;;;;;;;;;;;16.05;78.65;102044.34;5114194;28;19915;-51
2023/10/16 13:17:56;;;;;;;;;;;;;;;16.15;69.37;102048.97;5115445;28;19919;-50
2023/10/16 13:20:26;;;;;;;;;;;;;;;15.77;74.22;102041.88;5114783;28;19908;-51
2023/10/16 13:22:52;;;;;;;;;;;;;;;15.55;73.61;102040.41;5114107;28;19912;-52
2023/10/16 13:25:25;;;;;;;;;;;;;;;15.52;76.58;102040.34;5114668;28;19947;-51
2023/10/16 13:27:51;;;;;;;;;;;;;;;15.33;72.99;102038.91;5114738;28;20435;-50
2023/10/16 13:30:22;;;;;;;;;;;;;;;15.41;73.64;102041.75;5113983;28;19911;-47
2023/10/16 13:32:47;;;;;;;;;;;;;;;15.53;76.93;102036.00;5114906;28;19916;-50
2023/10/16 13:35:13;;;;;;;;;;;;;;;15.67;75.69;102034.66;5113786;28;19935;-47
2023/10/16 13:37:42;;;;;;;;;;;;;;;15.88;76.62;102038.72;5114695;28;19957;-50
2023/10/16 13:40:15;;;;;;;;;;;;;;;15.88;67.72;102031.81;5114900;28;20366;-51
2023/10/16 13:42:40;;;;;;;;;;;;;;;15.75;75.38;102035.78;5114000;28;19957;-51
2023/10/16 13:45:11;;;;;;;;;;;;;;;15.83;75.43;102029.91;5114654;28;19912;-50
2023/10/16 13:47:39;;;;;;;;;;;;;;;16.09;74.33;102038.44;5113831;28;20366;-49
2023/10/16 13:50:09;;;;;;;;;;;;;;;16.29;69.87;102036.31;5113626;28;19915;-51
2023/10/16 13:52:36;;;;;;;;;;;;;;;16.28;71.16;102032.84;5114339;28;19911;-50
2023/10/16 13:55:11;;;;;;;;;;;;;;;16.22;68.63;102024.00;5114547;28;19911;-52
2023/10/16 13:57:38;;;;;;;;;;;;;;;15.96;69.04;102021.63;5113826;28;19998;-52
2023/10/16 14:00:03;;;;;;;;;;;;;;;15.60;68.35;102022.34;5114186;28;19927;-51
2023/10/16 14:02:31;;;;;;;;;;;;;;;15.33;69.14;102022.47;5113839;28;19911;-52
2023/10/16 14:04:56;;;;;;;;;;;;;;;15.11;72.73;102027.03;5113395;28;19965;-50
2023/10/16 14:07:21;;;;;;;;;;;;;;;14.97;74.65;102024.00;5113847;28;19912;-51
2023/10/16 14:09:49;;;;;;;;;;;;;;;14.85;73.23;102023.63;5114180;28;20375;-51
2023/10/16 14:12:17;;;;;;;;;;;;;;;14.63;71.17;102010.84;5113092;28;19986;-51
2023/10/16 14:14:42;;;;;;;;;;;;;;;14.46;77.28;102005.13;5114184;28;19914;-51
2023/10/16 14:17:18;;;;;;;;;;;;;;;14.41;78.12;102006.69;5113947;28;19995;-51
2023/10/16 14:19:47;;;;;;;;;;;;;;;14.39;79.63;102003.13;5114273;28;19912;-52
2023/10/16 14:22:16;;;;;;;;;;;;;;;14.36;82.40;101996.97;5113818;28;19960;-50
2023/10/16 14:24:42;;;;;;;;;;;;;;;14.34;79.85;101994.31;5113156;28;19912;-51
2023/10/16 14:27:18;;;;;;;;;;;;;;;14.40;78.21;101988.47;5113904;28;19912;-51
2023/10/16 14:29:45;;;;;;;;;;;;;;;14.47;84.27;101988.72;5113850;28;19972;-51
2023/10/16 14:32:10;;;;;;;;;;;;;;;14.31;78.83;101989.94;5112796;28;20324;-48
2023/10/16 14:34:35;;;;;;;;;;;;;;;13.99;72.60;101997.53;5113846;28;19911;-49